createdAt,value
2022-10-06T00:02:29.752Z,48.48
2022-10-06T00:05:00.245Z,48.32
2022-10-06T00:07:31.027Z,49.00
2022-10-06T00:10:01.466Z,46.75
2022-10-06T00:12:31.580Z,46.67
2022-10-06T00:15:01.710Z,46.89
2022-10-06T00:17:31.837Z,47.34
2022-10-06T00:20:01.898Z,46.25
2022-10-06T00:22:40.412Z,47.35
2022-10-06T00:25:13.033Z,47.07
2022-10-06T00:27:46.476Z,47.19
2022-10-06T00:30:24.101Z,47.04
2022-10-06T00:33:06.462Z,46.83
2022-10-06T00:35:37.562Z,46.99
2022-10-06T00:38:08.353Z,46.64
2022-10-06T00:40:46.677Z,46.11
2022-10-06T00:43:53.557Z,46.83
2022-10-06T00:46:36.564Z,46.64
2022-10-06T00:49:19.951Z,45.94
2022-10-06T00:51:56.364Z,46.31
2022-10-06T00:54:28.189Z,46.17
2022-10-06T00:56:59.379Z,45.33
2022-10-06T00:59:29.758Z,45.58
2022-10-06T01:02:11.205Z,45.48
2022-10-06T01:04:47.863Z,45.02
2022-10-06T01:07:22.300Z,45.36
2022-10-06T01:09:53.286Z,45.13
2022-10-06T01:12:24.008Z,45.31
2022-10-06T01:14:56.579Z,45.83
2022-10-06T01:17:36.247Z,43.85
2022-10-06T01:20:11.171Z,44.97
2022-10-06T01:22:55.399Z,44.92
2022-10-06T01:25:26.111Z,44.71
2022-10-06T01:27:59.017Z,44.88
2022-10-06T01:30:56.056Z,45.23
2022-10-06T01:33:27.519Z,44.61
2022-10-06T01:35:58.620Z,43.89
2022-10-06T01:38:29.800Z,44.45
2022-10-06T01:41:05.692Z,44.41
2022-10-06T01:43:37.993Z,44.12
2022-10-06T01:46:09.048Z,44.10
2022-10-06T01:48:40.987Z,44.27
2022-10-06T01:51:18.855Z,44.11
2022-10-06T01:53:49.525Z,43.52
2022-10-06T01:56:20.231Z,43.83
2022-10-06T01:58:51.325Z,43.56
2022-10-06T02:01:21.765Z,44.24
2022-10-06T02:03:52.170Z,42.98
2022-10-06T02:06:22.604Z,43.06
2022-10-06T02:08:52.913Z,43.63
2022-10-06T02:11:23.292Z,43.51
2022-10-06T02:13:53.513Z,43.45
2022-10-06T02:16:23.438Z,42.49
2022-10-06T02:18:53.653Z,42.74
2022-10-06T02:21:25.314Z,42.96
2022-10-06T02:23:55.809Z,40.38
2022-10-06T02:26:27.164Z,42.78
2022-10-06T02:28:57.473Z,42.46
2022-10-06T02:31:28.821Z,41.82
2022-10-06T02:34:00.321Z,41.64
2022-10-06T02:36:31.883Z,42.55
2022-10-06T02:39:02.720Z,42.09
2022-10-06T02:41:34.079Z,42.42
2022-10-06T02:44:05.319Z,43.12
2022-10-06T02:46:35.541Z,41.02
2022-10-06T02:49:08.383Z,41.85
2022-10-06T02:51:39.123Z,41.84
2022-10-06T02:54:09.751Z,42.24
2022-10-06T02:56:39.806Z,42.70
2022-10-06T02:59:09.938Z,42.28
2022-10-06T03:01:43.609Z,41.98
2022-10-06T03:04:18.374Z,41.77
2022-10-06T03:06:50.617Z,38.25
2022-10-06T03:09:24.370Z,40.53
2022-10-06T03:11:55.977Z,39.79
2022-10-06T03:14:52.115Z,41.77
2022-10-06T03:17:23.850Z,42.07
2022-10-06T03:19:59.737Z,41.48
2022-10-06T03:22:30.190Z,41.57
2022-10-06T03:25:00.679Z,42.12
2022-10-06T03:27:30.888Z,39.79
2022-10-06T03:30:05.635Z,40.51
2022-10-06T03:32:37.590Z,40.88
2022-10-06T03:35:08.758Z,40.54
2022-10-06T03:37:39.052Z,41.14
2022-10-06T03:40:09.767Z,40.95
2022-10-06T03:42:40.345Z,41.76
2022-10-06T03:45:11.609Z,39.96
2022-10-06T03:47:42.231Z,41.51
2022-10-06T03:50:12.935Z,41.49
2022-10-06T03:52:43.965Z,39.53
2022-10-06T03:55:14.621Z,40.85
2022-10-06T03:57:44.722Z,41.25
2022-10-06T04:00:18.806Z,38.38
2022-10-06T04:02:49.041Z,36.01
2022-10-06T04:05:19.303Z,38.69
2022-10-06T04:07:49.472Z,39.36
2022-10-06T04:10:20.754Z,40.53
2022-10-06T04:12:51.116Z,40.55
2022-10-06T04:15:21.329Z,39.12
2022-10-06T04:17:51.553Z,40.09
2022-10-06T04:20:21.733Z,39.98
2022-10-06T04:22:53.173Z,40.18
2022-10-06T04:25:24.460Z,38.65
2022-10-06T04:27:57.911Z,38.62
2022-10-06T04:30:29.183Z,40.29
2022-10-06T04:32:59.326Z,40.05
2022-10-06T04:35:29.481Z,35.85
2022-10-06T04:37:59.653Z,39.16
2022-10-06T04:40:29.820Z,40.13
2022-10-06T04:43:00.029Z,38.76
2022-10-06T04:45:30.275Z,40.14
2022-10-06T04:48:01.379Z,38.37
2022-10-06T04:50:31.975Z,39.49
2022-10-06T04:53:15.215Z,39.58
2022-10-06T04:55:45.321Z,39.33
2022-10-06T04:58:15.144Z,40.03
2022-10-06T05:00:45.435Z,39.62
2022-10-06T05:03:15.608Z,39.70
2022-10-06T05:05:47.048Z,39.98
2022-10-06T05:08:17.507Z,39.18
2022-10-06T05:10:48.171Z,37.94
2022-10-06T05:13:18.812Z,36.83
2022-10-06T05:15:58.665Z,34.95
2022-10-06T05:18:33.638Z,39.09
2022-10-06T05:21:06.992Z,39.27
2022-10-06T05:23:40.277Z,39.82
2022-10-06T05:26:12.416Z,39.66
2022-10-06T05:28:44.258Z,38.84
2022-10-06T05:31:23.600Z,40.37
2022-10-06T05:33:54.457Z,40.08
2022-10-06T05:36:27.957Z,39.71
2022-10-06T05:39:00.620Z,38.64
2022-10-06T05:41:39.110Z,39.73
2022-10-06T05:44:12.589Z,39.80
2022-10-06T05:46:44.497Z,40.37
2022-10-06T05:49:15.956Z,39.77
2022-10-06T05:52:12.700Z,39.66
2022-10-06T05:54:44.334Z,39.60
2022-10-06T05:57:15.423Z,40.03
2022-10-06T05:59:47.279Z,36.24
2022-10-06T06:02:18.934Z,38.48
2022-10-06T06:04:49.076Z,39.82
2022-10-06T06:07:19.342Z,39.83
2022-10-06T06:09:50.007Z,39.45
2022-10-06T06:12:20.376Z,39.83
2022-10-06T06:15:11.948Z,40.28
2022-10-06T06:17:50.691Z,38.64
2022-10-06T06:20:23.607Z,39.57
2022-10-06T06:22:56.833Z,39.02
2022-10-06T06:25:29.966Z,38.92
2022-10-06T06:28:00.205Z,39.35
2022-10-06T06:30:31.073Z,39.27
2022-10-06T06:33:01.829Z,38.79
2022-10-06T06:35:33.091Z,38.86
2022-10-06T06:38:03.409Z,38.90
2022-10-06T06:40:33.689Z,39.21
2022-10-06T06:43:03.995Z,37.32
2022-10-06T06:45:42.396Z,38.95
2022-10-06T06:48:41.139Z,39.26
2022-10-06T06:51:14.748Z,38.32
2022-10-06T06:53:45.597Z,39.39
2022-10-06T06:56:16.339Z,39.19
2022-10-06T06:58:51.519Z,39.27
2022-10-06T07:01:24.786Z,38.81
2022-10-06T07:04:00.566Z,39.16
2022-10-06T07:06:35.381Z,38.67
2022-10-06T07:09:06.455Z,38.60
2022-10-06T07:11:39.827Z,39.58
2022-10-06T07:14:19.819Z,39.04
2022-10-06T07:17:09.499Z,38.86
2022-10-06T07:19:53.016Z,37.73
2022-10-06T07:22:45.152Z,38.54
2022-10-06T07:25:28.805Z,39.28
2022-10-06T07:28:09.054Z,38.47
2022-10-06T07:30:41.818Z,37.01
2022-10-06T07:33:16.773Z,38.29
2022-10-06T07:35:48.707Z,37.66
2022-10-06T07:38:25.859Z,37.20
2022-10-06T07:43:58.818Z,38.39
2022-10-06T07:46:32.222Z,37.73
2022-10-06T07:49:07.832Z,38.71
2022-10-06T07:51:38.923Z,34.42
2022-10-06T07:54:10.315Z,37.48
2022-10-06T07:57:18.954Z,37.94
2022-10-06T07:59:49.277Z,37.86
2022-10-06T08:02:21.356Z,38.42
2022-10-06T08:04:51.827Z,38.15
2022-10-06T08:07:23.953Z,36.70
2022-10-06T08:09:54.209Z,36.59
2022-10-06T08:15:32.627Z,36.35
2022-10-06T08:18:16.654Z,37.85
2022-10-06T08:20:51.468Z,37.40
2022-10-06T08:23:22.538Z,37.27
2022-10-06T08:25:58.181Z,38.22
2022-10-06T08:28:28.225Z,37.74
2022-10-06T08:30:58.463Z,37.53
2022-10-06T08:33:28.729Z,37.42
2022-10-06T08:36:05.557Z,37.71
2022-10-06T08:38:36.626Z,37.07
2022-10-06T08:41:29.091Z,38.09
2022-10-06T08:44:20.895Z,37.68
2022-10-06T08:47:12.985Z,37.41
2022-10-06T08:49:47.177Z,37.42
2022-10-06T08:52:42.453Z,37.58
2022-10-06T08:55:35.299Z,36.82
2022-10-06T08:58:24.408Z,38.49
2022-10-06T09:00:58.127Z,38.30
2022-10-06T09:03:31.556Z,39.16
2022-10-06T09:06:35.691Z,39.33
2022-10-06T09:09:47.200Z,38.95
2022-10-06T09:12:23.317Z,39.21
2022-10-06T09:15:11.399Z,39.53
2022-10-06T09:17:51.157Z,39.53
2022-10-06T09:20:43.941Z,39.45
2022-10-06T09:23:18.857Z,38.91
2022-10-06T09:25:49.222Z,38.95
2022-10-06T09:28:20.118Z,39.07
2022-10-06T09:30:54.526Z,39.31
2022-10-06T09:33:26.820Z,39.21
2022-10-06T09:36:13.608Z,39.91
2022-10-06T09:38:55.528Z,39.95
2022-10-06T09:41:30.840Z,39.89
2022-10-06T09:44:07.558Z,39.73
2022-10-06T09:46:44.738Z,39.76
2022-10-06T09:49:21.515Z,40.56
2022-10-06T09:52:17.024Z,40.52
2022-10-06T09:54:47.571Z,40.41
2022-10-06T09:57:27.178Z,40.54
2022-10-06T10:00:01.144Z,40.57
2022-10-06T10:02:38.433Z,40.74
2022-10-06T10:05:23.495Z,41.82
2022-10-06T10:08:11.372Z,41.38
2022-10-06T10:10:42.470Z,41.09
2022-10-06T10:13:27.942Z,41.33
2022-10-06T10:16:02.617Z,41.39
2022-10-06T10:18:35.034Z,41.71
2022-10-06T10:21:11.856Z,41.88
2022-10-06T10:23:56.583Z,41.87
2022-10-06T10:26:46.321Z,41.55
2022-10-06T10:29:33.147Z,41.14
2022-10-06T10:32:32.893Z,40.80
2022-10-06T10:35:06.455Z,41.27
2022-10-06T10:37:45.561Z,41.55
2022-10-06T10:40:33.559Z,41.74
2022-10-06T10:43:15.565Z,41.80
2022-10-06T10:45:59.778Z,42.04
2022-10-06T10:49:03.460Z,41.85
2022-10-06T10:51:38.626Z,42.36
2022-10-06T10:54:40.283Z,42.02
2022-10-06T10:57:17.663Z,41.74
2022-10-06T10:59:56.919Z,42.50
2022-10-06T11:02:28.399Z,42.47
2022-10-06T11:05:32.201Z,41.44
2022-10-06T11:08:24.294Z,41.58
2022-10-06T11:11:02.500Z,41.87
2022-10-06T11:14:01.573Z,41.26
2022-10-06T11:17:01.309Z,41.62
2022-10-06T11:19:49.428Z,41.57
2022-10-06T11:22:36.584Z,41.85
2022-10-06T11:25:14.806Z,41.92
2022-10-06T11:27:56.503Z,42.27
2022-10-06T11:30:27.933Z,41.99
2022-10-06T11:33:21.045Z,42.15
2022-10-06T11:35:51.796Z,42.77
2022-10-06T11:38:39.661Z,42.97
2022-10-06T11:41:14.619Z,42.86
2022-10-06T11:44:09.001Z,43.81
2022-10-06T11:46:50.687Z,43.00
2022-10-06T11:49:33.913Z,42.97
2022-10-06T11:52:09.888Z,43.54
2022-10-06T11:54:46.149Z,42.57
2022-10-06T11:57:30.564Z,43.23
2022-10-06T12:00:07.343Z,43.86
2022-10-06T12:02:36.800Z,42.84
2022-10-06T12:08:03.460Z,43.16
2022-10-06T12:10:36.227Z,43.32
2022-10-06T12:17:05.958Z,42.71
2022-10-06T12:19:34.549Z,43.26
2022-10-06T12:22:19.062Z,42.79
2022-10-06T12:25:08.661Z,42.49
2022-10-06T12:27:51.044Z,42.86
2022-10-06T12:30:59.278Z,43.50
2022-10-06T12:33:41.866Z,43.33
2022-10-06T12:36:20.894Z,44.12
2022-10-06T12:39:08.207Z,43.33
2022-10-06T12:42:09.691Z,43.54
2022-10-06T12:44:41.953Z,43.28
2022-10-06T12:47:39.347Z,43.00
2022-10-06T12:50:23.331Z,43.52
2022-10-06T12:53:07.287Z,42.89
2022-10-06T12:56:01.879Z,43.79
2022-10-06T12:58:34.643Z,42.82
2022-10-06T13:01:11.718Z,44.18
2022-10-06T13:03:42.022Z,43.19
2022-10-06T13:06:12.521Z,43.62
2022-10-06T13:08:44.060Z,43.61
2022-10-06T13:11:24.571Z,43.43
2022-10-06T13:14:02.449Z,43.86
2022-10-06T13:16:37.782Z,43.71
2022-10-06T13:19:16.194Z,44.08
2022-10-06T13:21:47.266Z,44.52
2022-10-06T13:24:23.151Z,44.50
2022-10-06T13:26:53.358Z,44.24
2022-10-06T13:29:28.550Z,44.33
2022-10-06T13:31:58.761Z,44.30
2022-10-06T13:34:39.722Z,44.79
2022-10-06T13:37:15.759Z,45.73
2022-10-06T13:39:46.065Z,45.05
2022-10-06T13:42:24.604Z,45.26
2022-10-06T13:45:05.344Z,45.30
2022-10-06T13:47:35.835Z,45.75
2022-10-06T13:50:19.425Z,45.36
2022-10-06T13:52:52.008Z,46.64
2022-10-06T13:55:27.340Z,45.83
2022-10-06T13:58:06.842Z,46.31
2022-10-06T14:01:02.060Z,46.47
2022-10-06T14:03:40.067Z,45.80
2022-10-06T14:06:21.965Z,46.31
2022-10-06T14:08:56.075Z,46.38
2022-10-06T14:11:30.170Z,46.29
2022-10-06T14:14:07.281Z,46.83
2022-10-06T14:16:37.674Z,46.80
2022-10-06T14:19:08.174Z,46.91
2022-10-06T14:21:46.167Z,46.59
2022-10-06T14:24:21.164Z,48.29
2022-10-06T14:26:53.774Z,47.58
2022-10-06T14:29:26.478Z,48.76
2022-10-06T14:31:56.210Z,48.72
2022-10-06T14:34:26.540Z,47.95
2022-10-06T14:36:56.728Z,47.25
2022-10-06T14:39:27.170Z,46.78
2022-10-06T14:41:57.483Z,47.24
2022-10-06T14:44:28.128Z,47.68
2022-10-06T14:46:59.401Z,47.31
2022-10-06T14:49:29.953Z,47.19
2022-10-06T14:52:00.379Z,47.88
2022-10-06T14:54:30.962Z,48.00
2022-10-06T14:57:01.309Z,47.69
2022-10-06T14:59:31.566Z,48.06
2022-10-06T15:02:02.066Z,48.15
2022-10-06T15:04:32.875Z,48.18
2022-10-06T15:07:20.876Z,48.09
2022-10-06T15:09:51.282Z,48.22
2022-10-06T15:12:22.468Z,48.16
2022-10-06T15:14:51.978Z,48.29
2022-10-06T15:17:23.195Z,47.90
2022-10-06T15:19:53.509Z,48.74
2022-10-06T15:22:24.686Z,48.60
2022-10-06T15:24:54.770Z,49.20
2022-10-06T15:28:03.087Z,49.03
2022-10-06T15:30:33.441Z,48.65
2022-10-06T15:33:06.671Z,48.87
2022-10-06T15:35:37.784Z,49.62
2022-10-06T15:38:08.068Z,49.00
2022-10-06T15:40:38.586Z,48.84
2022-10-06T15:43:08.780Z,49.13
2022-10-06T15:45:38.680Z,48.34
2022-10-06T15:48:11.317Z,48.72
2022-10-06T15:50:42.084Z,48.87
2022-10-06T15:53:12.082Z,48.52
2022-10-06T15:55:42.233Z,48.90
2022-10-06T15:58:12.328Z,48.56
2022-10-06T16:00:42.598Z,49.19
2022-10-06T16:03:26.985Z,50.67
2022-10-06T16:06:01.759Z,49.04
2022-10-06T16:08:34.835Z,48.44
2022-10-06T16:11:05.759Z,49.48
2022-10-06T16:13:36.684Z,48.92
2022-10-06T16:16:07.055Z,47.81
2022-10-06T16:18:37.396Z,48.93
2022-10-06T16:21:07.642Z,48.32
2022-10-06T16:23:37.698Z,49.71
2022-10-06T16:26:08.673Z,49.31
2022-10-06T16:28:39.301Z,49.22
2022-10-06T16:31:09.600Z,49.74
2022-10-06T16:33:40.548Z,49.51
2022-10-06T16:36:12.582Z,49.70
2022-10-06T16:38:43.965Z,50.26
2022-10-06T16:41:14.912Z,50.77
2022-10-06T16:43:48.170Z,50.80
2022-10-06T16:46:24.672Z,50.24
2022-10-06T16:48:57.216Z,49.58
2022-10-06T16:51:33.291Z,50.32
2022-10-06T16:54:06.008Z,49.41
2022-10-06T16:56:39.212Z,49.92
2022-10-06T16:59:20.645Z,50.17
2022-10-06T17:01:51.029Z,50.00
2022-10-06T17:04:24.569Z,50.72
2022-10-06T17:06:58.915Z,50.21
2022-10-06T17:09:30.994Z,50.69
2022-10-06T17:12:05.094Z,50.33
2022-10-06T17:14:36.320Z,50.86
2022-10-06T17:17:07.025Z,50.90
2022-10-06T17:19:37.625Z,51.06
2022-10-06T17:22:07.693Z,50.27
2022-10-06T17:24:37.769Z,50.21
2022-10-06T17:27:07.973Z,49.79
2022-10-06T17:29:39.262Z,51.01
2022-10-06T17:32:10.048Z,51.27
2022-10-06T17:34:42.478Z,51.04
2022-10-06T17:37:13.057Z,51.00
2022-10-06T17:39:47.031Z,50.68
2022-10-06T17:42:18.180Z,51.61
2022-10-06T17:44:47.742Z,52.13
2022-10-06T17:47:18.652Z,51.08
2022-10-06T17:49:49.012Z,50.63
2022-10-06T17:52:24.097Z,51.49
2022-10-06T17:54:55.738Z,51.50
2022-10-06T17:57:26.065Z,51.82
2022-10-06T17:59:59.098Z,52.32
2022-10-06T18:02:29.342Z,51.68
2022-10-06T18:04:59.424Z,51.41
2022-10-06T18:07:29.819Z,50.78
2022-10-06T18:10:17.726Z,53.21
2022-10-06T18:12:47.747Z,51.18
2022-10-06T18:15:17.824Z,51.59
2022-10-06T18:17:51.936Z,51.47
2022-10-06T18:20:22.791Z,51.41
2022-10-06T18:22:54.374Z,50.98
2022-10-06T18:25:27.042Z,50.96
2022-10-06T18:27:57.742Z,52.32
2022-10-06T18:30:29.507Z,50.79
2022-10-06T18:36:09.124Z,50.21
2022-10-06T18:36:16.619Z,51.56
2022-10-06T18:38:48.276Z,52.13
2022-10-06T18:41:20.868Z,51.33
2022-10-06T18:43:51.935Z,52.11
2022-10-06T18:46:40.057Z,52.12
2022-10-06T18:49:18.388Z,51.83
2022-10-06T18:51:54.683Z,50.96
2022-10-06T18:54:31.460Z,51.74
2022-10-06T18:57:02.243Z,50.84
2022-10-06T18:59:32.615Z,51.94
2022-10-06T19:02:03.674Z,51.41
2022-10-06T19:04:40.590Z,51.76
2022-10-06T19:07:11.076Z,50.27
2022-10-06T19:09:46.221Z,51.65
2022-10-06T19:12:17.017Z,53.22
2022-10-06T19:14:48.806Z,51.23
2022-10-06T19:17:19.054Z,52.35
2022-10-06T19:19:56.492Z,51.90
2022-10-06T19:22:26.436Z,51.14
2022-10-06T19:24:56.303Z,52.71
2022-10-06T19:27:26.813Z,52.00
2022-10-06T19:29:57.877Z,51.13
2022-10-06T19:32:34.532Z,52.07
2022-10-06T19:35:09.256Z,52.39
2022-10-06T19:37:41.282Z,52.28
2022-10-06T19:40:12.470Z,52.74
2022-10-06T19:42:52.373Z,51.43
2022-10-06T19:45:22.646Z,53.56
2022-10-06T19:47:53.379Z,52.57
2022-10-06T19:50:23.810Z,52.32
2022-10-06T19:52:53.890Z,54.71
2022-10-06T19:55:25.105Z,55.31
2022-10-06T19:57:56.038Z,54.64
2022-10-06T20:00:26.291Z,55.05
2022-10-06T20:02:56.480Z,54.94
2022-10-06T20:05:26.727Z,54.84
2022-10-06T20:07:56.633Z,54.68
2022-10-06T20:10:26.524Z,52.77
2022-10-06T20:12:56.806Z,54.13
2022-10-06T20:15:26.804Z,55.07
2022-10-06T20:17:57.173Z,55.10
2022-10-06T20:20:27.534Z,54.60
2022-10-06T20:22:57.693Z,54.11
2022-10-06T20:25:27.940Z,52.06
2022-10-06T20:27:58.643Z,54.42
2022-10-06T20:30:29.767Z,54.91
2022-10-06T20:33:01.692Z,55.95
2022-10-06T20:35:31.969Z,55.65
2022-10-06T20:38:02.656Z,55.97
2022-10-06T20:40:43.916Z,54.93
2022-10-06T20:43:15.394Z,55.97
2022-10-06T20:45:46.819Z,55.51
2022-10-06T20:48:16.939Z,55.68
2022-10-06T20:50:47.313Z,55.81
2022-10-06T20:53:18.077Z,55.47
2022-10-06T20:55:55.386Z,55.13
2022-10-06T20:58:26.505Z,55.28
2022-10-06T21:00:56.945Z,55.16
2022-10-06T21:03:27.873Z,55.63
2022-10-06T21:05:57.876Z,55.92
2022-10-06T21:08:27.951Z,55.35
2022-10-06T21:11:03.019Z,55.46
2022-10-06T21:13:33.927Z,55.46
2022-10-06T21:16:06.049Z,54.63
2022-10-06T21:18:36.733Z,55.54
2022-10-06T21:21:11.110Z,54.93
2022-10-06T21:23:43.838Z,54.90
2022-10-06T21:26:17.680Z,55.25
2022-10-06T21:28:47.373Z,55.13
2022-10-06T21:31:20.402Z,55.51
2022-10-06T21:33:51.668Z,54.99
2022-10-06T21:36:24.101Z,56.16
2022-10-06T21:38:59.040Z,55.08
2022-10-06T21:41:32.984Z,54.93
2022-10-06T21:44:05.797Z,54.81
2022-10-06T21:46:52.713Z,53.40
2022-10-06T21:49:25.088Z,54.69
2022-10-06T21:51:59.617Z,55.18
2022-10-06T21:54:29.901Z,55.85
2022-10-06T21:57:00.475Z,55.39
2022-10-06T21:59:30.892Z,55.24
2022-10-06T22:02:01.364Z,55.31
2022-10-06T22:04:31.968Z,54.60
2022-10-06T22:07:03.621Z,55.05
2022-10-06T22:09:34.281Z,54.21
2022-10-06T22:12:04.553Z,55.98
2022-10-06T22:14:34.721Z,55.77
2022-10-06T22:17:06.271Z,55.33
2022-10-06T22:19:36.797Z,56.07
2022-10-06T22:22:06.888Z,55.81
2022-10-06T22:24:37.901Z,55.51
2022-10-06T22:27:08.296Z,55.80
2022-10-06T22:29:38.501Z,55.92
2022-10-06T22:32:09.602Z,56.76
2022-10-06T22:34:39.985Z,55.92
2022-10-06T22:37:10.787Z,56.46
2022-10-06T22:39:41.008Z,56.82
2022-10-06T22:42:11.616Z,56.58
2022-10-06T22:44:41.972Z,56.45
2022-10-06T22:47:12.710Z,57.18
2022-10-06T22:49:42.756Z,53.68
2022-10-06T22:52:12.742Z,53.67
2022-10-06T22:54:42.931Z,53.18
2022-10-06T22:57:13.255Z,54.11
2022-10-06T22:59:43.573Z,53.34
2022-10-06T23:02:13.608Z,53.42
2022-10-06T23:04:43.659Z,53.18
2022-10-06T23:07:13.682Z,52.63
2022-10-06T23:09:43.730Z,52.32
2022-10-06T23:12:13.731Z,54.05
2022-10-06T23:14:43.886Z,52.51
2022-10-06T23:17:14.267Z,51.95
2022-10-06T23:19:44.349Z,51.86
2022-10-06T23:22:14.835Z,51.64
2022-10-06T23:24:44.862Z,51.83
2022-10-06T23:27:15.702Z,51.75
2022-10-06T23:29:46.349Z,53.43
2022-10-06T23:32:16.801Z,53.29
2022-10-06T23:34:47.250Z,53.20
2022-10-06T23:37:17.815Z,52.45
2022-10-06T23:39:47.890Z,54.44
2022-10-06T23:42:17.908Z,55.35
2022-10-06T23:44:48.501Z,54.43
2022-10-06T23:47:18.555Z,53.96
2022-10-06T23:49:48.679Z,53.40
2022-10-06T23:52:18.849Z,55.38
2022-10-06T23:54:49.117Z,53.69
2022-10-06T23:57:19.788Z,54.61
2022-10-06T23:59:49.984Z,55.27
